sensor_id;sensor_type;location;lat;lon;timestamp;temperature;humidity
44229;DHT22;29904;51.058;5.378;2023-04-23T00:01:02;9.10;99.90
44229;DHT22;29904;51.058;5.378;2023-04-23T00:03:30;9.10;99.90
44229;DHT22;29904;51.058;5.378;2023-04-23T00:05:58;9.10;99.90
44229;DHT22;29904;51.058;5.378;2023-04-23T00:08:24;9.10;99.90
44229;DHT22;29904;51.058;5.378;2023-04-23T00:10:51;9.20;99.90
44229;DHT22;29904;51.058;5.378;2023-04-23T00:13:17;9.20;99.90
44229;DHT22;29904;51.058;5.378;2023-04-23T00:15:43;9.20;99.90
44229;DHT22;29904;51.058;5.378;2023-04-23T00:18:09;9.30;99.90
44229;DHT22;29904;51.058;5.378;2023-04-23T00:20:35;9.30;99.90
44229;DHT22;29904;51.058;5.378;2023-04-23T00:23:01;9.40;99.90
44229;DHT22;29904;51.058;5.378;2023-04-23T00:25:27;9.40;99.90
44229;DHT22;29904;51.058;5.378;2023-04-23T00:27:52;9.50;99.90
44229;DHT22;29904;51.058;5.378;2023-04-23T00:30:18;9.60;99.90
44229;DHT22;29904;51.058;5.378;2023-04-23T00:32:44;9.80;99.90
44229;DHT22;29904;51.058;5.378;2023-04-23T00:35:10;9.90;99.90
44229;DHT22;29904;51.058;5.378;2023-04-23T00:37:35;10.00;99.90
44229;DHT22;29904;51.058;5.378;2023-04-23T00:40:01;10.10;99.90
44229;DHT22;29904;51.058;5.378;2023-04-23T00:42:29;10.10;99.90
44229;DHT22;29904;51.058;5.378;2023-04-23T00:44:54;10.20;99.90
44229;DHT22;29904;51.058;5.378;2023-04-23T00:47:21;10.20;99.90
44229;DHT22;29904;51.058;5.378;2023-04-23T00:49:48;10.20;99.90
44229;DHT22;29904;51.058;5.378;2023-04-23T00:52:15;10.20;99.90
44229;DHT22;29904;51.058;5.378;2023-04-23T00:54:41;10.30;99.90
44229;DHT22;29904;51.058;5.378;2023-04-23T00:57:07;10.20;99.90
44229;DHT22;29904;51.058;5.378;2023-04-23T00:59:33;10.20;99.90
44229;DHT22;29904;51.058;5.378;2023-04-23T01:02:00;10.20;99.90
44229;DHT22;29904;51.058;5.378;2023-04-23T01:04:27;10.10;99.90
44229;DHT22;29904;51.058;5.378;2023-04-23T01:06:56;10.00;99.90
44229;DHT22;29904;51.058;5.378;2023-04-23T01:09:23;9.80;99.90
44229;DHT22;29904;51.058;5.378;2023-04-23T01:11:51;9.70;99.90
44229;DHT22;29904;51.058;5.378;2023-04-23T01:14:17;9.70;99.90
44229;DHT22;29904;51.058;5.378;2023-04-23T01:16:43;9.70;99.90
44229;DHT22;29904;51.058;5.378;2023-04-23T01:19:10;9.60;99.90
44229;DHT22;29904;51.058;5.378;2023-04-23T01:21:38;9.70;99.90
44229;DHT22;29904;51.058;5.378;2023-04-23T01:24:08;9.80;99.90
44229;DHT22;29904;51.058;5.378;2023-04-23T01:26:34;9.90;99.90
44229;DHT22;29904;51.058;5.378;2023-04-23T01:29:00;9.90;99.90
44229;DHT22;29904;51.058;5.378;2023-04-23T01:31:27;12.40;99.90
44229;DHT22;29904;51.058;5.378;2023-04-23T01:33:54;10.00;99.90
44229;DHT22;29904;51.058;5.378;2023-04-23T01:36:22;10.10;99.90
44229;DHT22;29904;51.058;5.378;2023-04-23T01:38:48;10.20;99.90
44229;DHT22;29904;51.058;5.378;2023-04-23T01:41:14;10.30;99.90
44229;DHT22;29904;51.058;5.378;2023-04-23T01:43:43;10.30;99.90
44229;DHT22;29904;51.058;5.378;2023-04-23T01:46:10;10.40;99.90
44229;DHT22;29904;51.058;5.378;2023-04-23T01:48:37;10.40;99.90
44229;DHT22;29904;51.058;5.378;2023-04-23T01:51:03;10.40;99.90
44229;DHT22;29904;51.058;5.378;2023-04-23T01:53:29;10.40;99.90
44229;DHT22;29904;51.058;5.378;2023-04-23T01:55:55;10.40;99.90
44229;DHT22;29904;51.058;5.378;2023-04-23T01:58:22;10.50;99.90
44229;DHT22;29904;51.058;5.378;2023-04-23T02:00:49;10.50;99.90
44229;DHT22;29904;51.058;5.378;2023-04-23T02:03:15;10.50;99.90
44229;DHT22;29904;51.058;5.378;2023-04-23T02:05:41;10.50;99.90
44229;DHT22;29904;51.058;5.378;2023-04-23T02:08:08;10.60;99.90
44229;DHT22;29904;51.058;5.378;2023-04-23T02:10:34;10.50;99.90
44229;DHT22;29904;51.058;5.378;2023-04-23T02:13:01;10.60;99.90
44229;DHT22;29904;51.058;5.378;2023-04-23T02:15:27;10.60;99.90
44229;DHT22;29904;51.058;5.378;2023-04-23T02:17:53;10.60;99.90
44229;DHT22;29904;51.058;5.378;2023-04-23T02:20:19;10.60;99.90
44229;DHT22;29904;51.058;5.378;2023-04-23T02:22:46;10.60;99.90
44229;DHT22;29904;51.058;5.378;2023-04-23T02:25:13;10.60;99.90
44229;DHT22;29904;51.058;5.378;2023-04-23T02:27:40;10.60;99.90
44229;DHT22;29904;51.058;5.378;2023-04-23T02:30:07;10.60;99.90
44229;DHT22;29904;51.058;5.378;2023-04-23T02:32:34;10.60;99.90
44229;DHT22;29904;51.058;5.378;2023-04-23T02:35:00;10.60;99.90
44229;DHT22;29904;51.058;5.378;2023-04-23T02:37:26;10.60;99.90
44229;DHT22;29904;51.058;5.378;2023-04-23T02:39:52;10.60;99.90
44229;DHT22;29904;51.058;5.378;2023-04-23T02:42:18;10.60;99.90
44229;DHT22;29904;51.058;5.378;2023-04-23T02:44:44;10.60;99.90
44229;DHT22;29904;51.058;5.378;2023-04-23T02:47:10;10.60;99.90
44229;DHT22;29904;51.058;5.378;2023-04-23T02:49:35;10.60;99.90
44229;DHT22;29904;51.058;5.378;2023-04-23T02:52:01;10.50;99.90
44229;DHT22;29904;51.058;5.378;2023-04-23T02:54:27;10.60;99.90
44229;DHT22;29904;51.058;5.378;2023-04-23T02:56:53;10.60;99.90
44229;DHT22;29904;51.058;5.378;2023-04-23T02:59:19;10.60;99.90
44229;DHT22;29904;51.058;5.378;2023-04-23T03:01:44;10.60;99.90
44229;DHT22;29904;51.058;5.378;2023-04-23T03:04:10;10.60;99.90
44229;DHT22;29904;51.058;5.378;2023-04-23T03:06:36;10.60;99.90
44229;DHT22;29904;51.058;5.378;2023-04-23T03:09:02;10.60;99.90
44229;DHT22;29904;51.058;5.378;2023-04-23T03:11:29;10.70;99.90
44229;DHT22;29904;51.058;5.378;2023-04-23T03:13:55;10.70;99.90
44229;DHT22;29904;51.058;5.378;2023-04-23T03:16:20;10.70;99.90
44229;DHT22;29904;51.058;5.378;2023-04-23T03:18:46;10.70;99.90
44229;DHT22;29904;51.058;5.378;2023-04-23T03:21:12;10.80;99.90
44229;DHT22;29904;51.058;5.378;2023-04-23T03:23:38;10.80;99.90
44229;DHT22;29904;51.058;5.378;2023-04-23T03:26:03;10.80;99.90
44229;DHT22;29904;51.058;5.378;2023-04-23T03:28:30;10.70;99.90
44229;DHT22;29904;51.058;5.378;2023-04-23T03:30:55;10.70;99.90
44229;DHT22;29904;51.058;5.378;2023-04-23T03:33:21;10.60;99.90
44229;DHT22;29904;51.058;5.378;2023-04-23T03:35:47;10.50;99.90
44229;DHT22;29904;51.058;5.378;2023-04-23T03:38:13;10.50;99.90
44229;DHT22;29904;51.058;5.378;2023-04-23T03:40:38;10.40;99.90
44229;DHT22;29904;51.058;5.378;2023-04-23T03:43:04;10.40;99.90
44229;DHT22;29904;51.058;5.378;2023-04-23T03:45:30;10.40;99.90
44229;DHT22;29904;51.058;5.378;2023-04-23T03:47:55;10.40;99.90
44229;DHT22;29904;51.058;5.378;2023-04-23T03:50:21;10.40;99.90
44229;DHT22;29904;51.058;5.378;2023-04-23T03:52:47;10.40;99.90
44229;DHT22;29904;51.058;5.378;2023-04-23T03:55:13;10.50;99.90
44229;DHT22;29904;51.058;5.378;2023-04-23T03:57:38;10.40;99.90
44229;DHT22;29904;51.058;5.378;2023-04-23T04:00:05;10.50;99.90
44229;DHT22;29904;51.058;5.378;2023-04-23T04:02:37;10.50;99.90
44229;DHT22;29904;51.058;5.378;2023-04-23T04:05:06;10.50;99.90
44229;DHT22;29904;51.058;5.378;2023-04-23T04:07:33;10.50;99.90
44229;DHT22;29904;51.058;5.378;2023-04-23T04:10:01;10.60;99.90
44229;DHT22;29904;51.058;5.378;2023-04-23T04:12:28;10.50;99.90
44229;DHT22;29904;51.058;5.378;2023-04-23T04:14:53;10.50;99.90
44229;DHT22;29904;51.058;5.378;2023-04-23T04:17:19;10.50;99.90
44229;DHT22;29904;51.058;5.378;2023-04-23T04:19:45;10.60;99.90
44229;DHT22;29904;51.058;5.378;2023-04-23T04:22:10;10.60;99.90
44229;DHT22;29904;51.058;5.378;2023-04-23T04:24:36;10.50;99.90
44229;DHT22;29904;51.058;5.378;2023-04-23T04:27:02;10.50;99.90
44229;DHT22;29904;51.058;5.378;2023-04-23T04:29:29;10.50;99.90
44229;DHT22;29904;51.058;5.378;2023-04-23T04:31:56;10.40;99.90
44229;DHT22;29904;51.058;5.378;2023-04-23T04:34:22;10.40;99.90
44229;DHT22;29904;51.058;5.378;2023-04-23T04:36:48;10.30;99.90
44229;DHT22;29904;51.058;5.378;2023-04-23T04:39:14;10.30;99.90
44229;DHT22;29904;51.058;5.378;2023-04-23T04:41:40;10.30;99.90
44229;DHT22;29904;51.058;5.378;2023-04-23T04:44:06;10.30;99.90
44229;DHT22;29904;51.058;5.378;2023-04-23T04:46:34;10.20;99.90
44229;DHT22;29904;51.058;5.378;2023-04-23T04:49:11;10.20;99.90
44229;DHT22;29904;51.058;5.378;2023-04-23T04:51:38;10.10;99.90
44229;DHT22;29904;51.058;5.378;2023-04-23T04:54:05;10.00;99.90
44229;DHT22;29904;51.058;5.378;2023-04-23T04:56:32;10.00;99.90
44229;DHT22;29904;51.058;5.378;2023-04-23T04:58:57;9.90;99.90
44229;DHT22;29904;51.058;5.378;2023-04-23T05:01:23;9.90;99.90
44229;DHT22;29904;51.058;5.378;2023-04-23T05:03:51;9.90;99.90
44229;DHT22;29904;51.058;5.378;2023-04-23T05:06:18;9.90;99.90
44229;DHT22;29904;51.058;5.378;2023-04-23T05:08:43;9.90;99.90
44229;DHT22;29904;51.058;5.378;2023-04-23T05:11:16;10.00;99.90
44229;DHT22;29904;51.058;5.378;2023-04-23T05:13:43;10.10;99.90
44229;DHT22;29904;51.058;5.378;2023-04-23T05:16:09;10.20;99.90
44229;DHT22;29904;51.058;5.378;2023-04-23T05:18:37;10.20;99.90
44229;DHT22;29904;51.058;5.378;2023-04-23T05:21:03;10.30;99.90
44229;DHT22;29904;51.058;5.378;2023-04-23T05:23:29;10.40;99.90
44229;DHT22;29904;51.058;5.378;2023-04-23T05:25:54;10.70;99.90
44229;DHT22;29904;51.058;5.378;2023-04-23T05:28:21;11.00;99.90
44229;DHT22;29904;51.058;5.378;2023-04-23T05:30:47;11.20;99.90
44229;DHT22;29904;51.058;5.378;2023-04-23T05:33:14;11.20;99.90
44229;DHT22;29904;51.058;5.378;2023-04-23T05:35:40;11.50;99.90
44229;DHT22;29904;51.058;5.378;2023-04-23T05:38:06;11.80;99.90
44229;DHT22;29904;51.058;5.378;2023-04-23T05:40:32;12.00;99.90
44229;DHT22;29904;51.058;5.378;2023-04-23T05:42:58;12.40;99.90
44229;DHT22;29904;51.058;5.378;2023-04-23T05:45:24;12.80;99.90
44229;DHT22;29904;51.058;5.378;2023-04-23T05:47:50;13.10;99.90
44229;DHT22;29904;51.058;5.378;2023-04-23T05:50:16;13.10;99.90
44229;DHT22;29904;51.058;5.378;2023-04-23T05:52:42;13.00;99.90
44229;DHT22;29904;51.058;5.378;2023-04-23T05:55:08;12.90;99.90
44229;DHT22;29904;51.058;5.378;2023-04-23T05:57:36;12.80;99.90
44229;DHT22;29904;51.058;5.378;2023-04-23T06:00:03;12.90;99.90
44229;DHT22;29904;51.058;5.378;2023-04-23T06:02:30;13.00;99.90
44229;DHT22;29904;51.058;5.378;2023-04-23T06:04:58;13.50;99.90
44229;DHT22;29904;51.058;5.378;2023-04-23T06:07:23;14.20;99.90
44229;DHT22;29904;51.058;5.378;2023-04-23T06:09:49;14.90;99.90
44229;DHT22;29904;51.058;5.378;2023-04-23T06:12:15;15.30;99.90
44229;DHT22;29904;51.058;5.378;2023-04-23T06:14:41;15.20;99.90
44229;DHT22;29904;51.058;5.378;2023-04-23T06:17:07;15.10;99.90
44229;DHT22;29904;51.058;5.378;2023-04-23T06:19:32;15.10;99.90
44229;DHT22;29904;51.058;5.378;2023-04-23T06:21:58;15.50;99.90
44229;DHT22;29904;51.058;5.378;2023-04-23T06:24:24;15.70;99.90
44229;DHT22;29904;51.058;5.378;2023-04-23T06:26:49;16.00;99.90
44229;DHT22;29904;51.058;5.378;2023-04-23T06:29:15;16.20;99.90
44229;DHT22;29904;51.058;5.378;2023-04-23T06:31:41;16.50;99.90
44229;DHT22;29904;51.058;5.378;2023-04-23T06:34:07;16.90;99.90
44229;DHT22;29904;51.058;5.378;2023-04-23T06:36:32;16.90;99.90
44229;DHT22;29904;51.058;5.378;2023-04-23T06:38:58;16.70;99.90
44229;DHT22;29904;51.058;5.378;2023-04-23T06:41:24;16.60;99.90
44229;DHT22;29904;51.058;5.378;2023-04-23T06:43:50;16.50;99.90
44229;DHT22;29904;51.058;5.378;2023-04-23T06:46:15;16.20;99.90
44229;DHT22;29904;51.058;5.378;2023-04-23T06:48:41;15.80;99.90
44229;DHT22;29904;51.058;5.378;2023-04-23T06:51:07;15.40;99.90
44229;DHT22;29904;51.058;5.378;2023-04-23T06:53:32;15.20;99.90
44229;DHT22;29904;51.058;5.378;2023-04-23T06:55:58;15.10;99.90
44229;DHT22;29904;51.058;5.378;2023-04-23T06:58:24;15.10;99.90
44229;DHT22;29904;51.058;5.378;2023-04-23T07:00:56;15.10;99.90
44229;DHT22;29904;51.058;5.378;2023-04-23T07:03:27;15.10;99.90
44229;DHT22;29904;51.058;5.378;2023-04-23T07:05:53;15.40;99.90
44229;DHT22;29904;51.058;5.378;2023-04-23T07:08:19;15.90;99.90
44229;DHT22;29904;51.058;5.378;2023-04-23T07:10:47;16.10;99.90
44229;DHT22;29904;51.058;5.378;2023-04-23T07:13:14;16.10;99.90
44229;DHT22;29904;51.058;5.378;2023-04-23T07:15:40;16.00;99.90
44229;DHT22;29904;51.058;5.378;2023-04-23T07:18:06;16.10;99.90
44229;DHT22;29904;51.058;5.378;2023-04-23T07:20:32;16.30;99.90
44229;DHT22;29904;51.058;5.378;2023-04-23T07:22:59;16.60;99.90
44229;DHT22;29904;51.058;5.378;2023-04-23T07:25:25;16.80;99.90
44229;DHT22;29904;51.058;5.378;2023-04-23T07:27:52;17.00;99.90
44229;DHT22;29904;51.058;5.378;2023-04-23T07:30:19;17.30;99.90
44229;DHT22;29904;51.058;5.378;2023-04-23T07:32:45;17.70;99.90
44229;DHT22;29904;51.058;5.378;2023-04-23T07:35:11;17.80;99.90
44229;DHT22;29904;51.058;5.378;2023-04-23T07:37:37;17.80;99.90
44229;DHT22;29904;51.058;5.378;2023-04-23T07:40:03;18.00;99.90
44229;DHT22;29904;51.058;5.378;2023-04-23T07:42:30;18.00;99.90
44229;DHT22;29904;51.058;5.378;2023-04-23T07:44:56;18.00;99.90
44229;DHT22;29904;51.058;5.378;2023-04-23T07:47:22;17.90;99.90
44229;DHT22;29904;51.058;5.378;2023-04-23T07:49:48;17.60;99.90
44229;DHT22;29904;51.058;5.378;2023-04-23T07:52:15;17.30;99.90
44229;DHT22;29904;51.058;5.378;2023-04-23T07:54:41;17.10;99.90
44229;DHT22;29904;51.058;5.378;2023-04-23T07:57:07;17.00;99.90
44229;DHT22;29904;51.058;5.378;2023-04-23T07:59:33;16.90;99.90
44229;DHT22;29904;51.058;5.378;2023-04-23T08:01:59;16.90;99.90
44229;DHT22;29904;51.058;5.378;2023-04-23T08:04:24;16.90;99.90
44229;DHT22;29904;51.058;5.378;2023-04-23T08:06:51;16.90;99.90
44229;DHT22;29904;51.058;5.378;2023-04-23T08:09:17;16.80;99.90
44229;DHT22;29904;51.058;5.378;2023-04-23T08:11:43;16.80;99.90
44229;DHT22;29904;51.058;5.378;2023-04-23T08:14:09;16.70;99.90
44229;DHT22;29904;51.058;5.378;2023-04-23T08:16:35;16.80;99.90
44229;DHT22;29904;51.058;5.378;2023-04-23T08:19:01;16.80;99.90
44229;DHT22;29904;51.058;5.378;2023-04-23T08:21:30;16.80;99.90
44229;DHT22;29904;51.058;5.378;2023-04-23T08:23:57;16.50;99.90
44229;DHT22;29904;51.058;5.378;2023-04-23T08:26:22;16.80;99.90
44229;DHT22;29904;51.058;5.378;2023-04-23T08:28:48;16.80;99.90
44229;DHT22;29904;51.058;5.378;2023-04-23T08:31:14;16.80;99.90
44229;DHT22;29904;51.058;5.378;2023-04-23T08:33:40;16.90;99.90
44229;DHT22;29904;51.058;5.378;2023-04-23T08:36:06;16.90;99.90
44229;DHT22;29904;51.058;5.378;2023-04-23T08:38:32;17.10;99.90
44229;DHT22;29904;51.058;5.378;2023-04-23T08:40:58;17.30;99.90
44229;DHT22;29904;51.058;5.378;2023-04-23T08:43:37;17.40;99.90
44229;DHT22;29904;51.058;5.378;2023-04-23T08:46:10;17.40;99.90
44229;DHT22;29904;51.058;5.378;2023-04-23T08:48:36;17.50;99.90
44229;DHT22;29904;51.058;5.378;2023-04-23T08:51:03;17.60;99.90
44229;DHT22;29904;51.058;5.378;2023-04-23T08:53:30;17.80;99.90
44229;DHT22;29904;51.058;5.378;2023-04-23T08:55:58;17.90;99.90
44229;DHT22;29904;51.058;5.378;2023-04-23T08:58:24;17.90;99.90
44229;DHT22;29904;51.058;5.378;2023-04-23T09:00:53;17.90;99.90
44229;DHT22;29904;51.058;5.378;2023-04-23T09:03:19;17.90;99.90
44229;DHT22;29904;51.058;5.378;2023-04-23T09:05:46;17.90;99.90
44229;DHT22;29904;51.058;5.378;2023-04-23T09:08:12;17.90;99.90
44229;DHT22;29904;51.058;5.378;2023-04-23T09:10:40;18.00;99.90
44229;DHT22;29904;51.058;5.378;2023-04-23T09:13:07;18.00;99.90
44229;DHT22;29904;51.058;5.378;2023-04-23T09:15:33;17.70;99.90
44229;DHT22;29904;51.058;5.378;2023-04-23T09:18:03;17.60;99.90
44229;DHT22;29904;51.058;5.378;2023-04-23T09:20:29;17.70;99.90
44229;DHT22;29904;51.058;5.378;2023-04-23T09:22:54;17.70;99.90
44229;DHT22;29904;51.058;5.378;2023-04-23T09:25:22;17.90;99.90
44229;DHT22;29904;51.058;5.378;2023-04-23T09:27:50;18.00;99.90
44229;DHT22;29904;51.058;5.378;2023-04-23T09:30:17;18.10;99.90
44229;DHT22;29904;51.058;5.378;2023-04-23T09:32:44;18.20;99.90
44229;DHT22;29904;51.058;5.378;2023-04-23T09:35:15;18.20;99.90
44229;DHT22;29904;51.058;5.378;2023-04-23T09:37:47;18.50;99.90
44229;DHT22;29904;51.058;5.378;2023-04-23T09:40:14;18.50;99.90
44229;DHT22;29904;51.058;5.378;2023-04-23T09:42:46;18.50;99.90
44229;DHT22;29904;51.058;5.378;2023-04-23T09:45:13;18.50;99.90
44229;DHT22;29904;51.058;5.378;2023-04-23T09:47:41;18.60;99.90
44229;DHT22;29904;51.058;5.378;2023-04-23T09:50:07;18.70;99.90
44229;DHT22;29904;51.058;5.378;2023-04-23T09:52:38;18.80;99.90
44229;DHT22;29904;51.058;5.378;2023-04-23T09:55:04;18.80;99.90
44229;DHT22;29904;51.058;5.378;2023-04-23T09:57:37;18.80;99.90
44229;DHT22;29904;51.058;5.378;2023-04-23T10:00:18;18.90;99.90
44229;DHT22;29904;51.058;5.378;2023-04-23T10:02:53;18.80;99.90
44229;DHT22;29904;51.058;5.378;2023-04-23T10:05:20;18.70;99.90
44229;DHT22;29904;51.058;5.378;2023-04-23T10:07:46;18.60;99.90
44229;DHT22;29904;51.058;5.378;2023-04-23T10:10:15;18.60;99.90
44229;DHT22;29904;51.058;5.378;2023-04-23T10:12:45;18.50;99.90
44229;DHT22;29904;51.058;5.378;2023-04-23T10:15:12;18.50;99.90
44229;DHT22;29904;51.058;5.378;2023-04-23T10:17:39;18.40;99.90
44229;DHT22;29904;51.058;5.378;2023-04-23T10:20:06;18.60;99.90
44229;DHT22;29904;51.058;5.378;2023-04-23T10:22:34;18.80;99.90
44229;DHT22;29904;51.058;5.378;2023-04-23T10:25:03;19.00;99.90
44229;DHT22;29904;51.058;5.378;2023-04-23T10:27:31;19.30;99.90
44229;DHT22;29904;51.058;5.378;2023-04-23T10:29:58;19.70;99.90
44229;DHT22;29904;51.058;5.378;2023-04-23T10:32:26;19.90;99.90
44229;DHT22;29904;51.058;5.378;2023-04-23T10:34:53;19.90;99.90
44229;DHT22;29904;51.058;5.378;2023-04-23T10:37:19;20.10;99.90
44229;DHT22;29904;51.058;5.378;2023-04-23T10:39:49;20.00;99.90
44229;DHT22;29904;51.058;5.378;2023-04-23T10:42:15;19.70;99.90
44229;DHT22;29904;51.058;5.378;2023-04-23T10:44:42;19.60;99.90
44229;DHT22;29904;51.058;5.378;2023-04-23T10:47:13;19.60;99.90
44229;DHT22;29904;51.058;5.378;2023-04-23T10:49:40;19.60;99.90
44229;DHT22;29904;51.058;5.378;2023-04-23T10:52:14;19.50;99.90
44229;DHT22;29904;51.058;5.378;2023-04-23T10:54:55;19.40;99.90
44229;DHT22;29904;51.058;5.378;2023-04-23T10:57:21;19.20;99.90
44229;DHT22;29904;51.058;5.378;2023-04-23T10:59:52;19.20;99.90
44229;DHT22;29904;51.058;5.378;2023-04-23T11:02:18;19.20;99.90
44229;DHT22;29904;51.058;5.378;2023-04-23T11:04:45;19.50;99.90
44229;DHT22;29904;51.058;5.378;2023-04-23T11:07:12;19.90;99.90
44229;DHT22;29904;51.058;5.378;2023-04-23T11:09:39;20.10;99.90
44229;DHT22;29904;51.058;5.378;2023-04-23T11:12:08;20.20;99.90
44229;DHT22;29904;51.058;5.378;2023-04-23T11:14:55;20.10;99.90
44229;DHT22;29904;51.058;5.378;2023-04-23T11:20:13;20.00;99.90
44229;DHT22;29904;51.058;5.378;2023-04-23T11:25:10;20.00;99.90
44229;DHT22;29904;51.058;5.378;2023-04-23T11:27:45;20.00;99.90
44229;DHT22;29904;51.058;5.378;2023-04-23T11:30:13;20.00;99.90
44229;DHT22;29904;51.058;5.378;2023-04-23T11:32:40;20.20;99.90
44229;DHT22;29904;51.058;5.378;2023-04-23T11:35:07;20.60;99.90
44229;DHT22;29904;51.058;5.378;2023-04-23T11:37:39;20.90;99.90
44229;DHT22;29904;51.058;5.378;2023-04-23T11:40:11;20.80;99.90
44229;DHT22;29904;51.058;5.378;2023-04-23T11:42:42;20.90;99.90
44229;DHT22;29904;51.058;5.378;2023-04-23T11:45:29;21.20;99.90
44229;DHT22;29904;51.058;5.378;2023-04-23T11:47:57;21.20;99.90
44229;DHT22;29904;51.058;5.378;2023-04-23T11:50:30;21.10;99.90
44229;DHT22;29904;51.058;5.378;2023-04-23T11:53:04;21.30;99.90
44229;DHT22;29904;51.058;5.378;2023-04-23T11:55:30;21.20;99.90
44229;DHT22;29904;51.058;5.378;2023-04-23T11:57:56;21.10;99.90
44229;DHT22;29904;51.058;5.378;2023-04-23T12:00:25;21.20;99.90
44229;DHT22;29904;51.058;5.378;2023-04-23T12:05:31;21.20;99.90
44229;DHT22;29904;51.058;5.378;2023-04-23T12:08:18;21.00;99.90
44229;DHT22;29904;51.058;5.378;2023-04-23T12:10:53;20.80;99.90
44229;DHT22;29904;51.058;5.378;2023-04-23T12:13:24;20.70;99.90
44229;DHT22;29904;51.058;5.378;2023-04-23T12:15:56;20.50;99.90
44229;DHT22;29904;51.058;5.378;2023-04-23T12:18:33;20.30;99.90
44229;DHT22;29904;51.058;5.378;2023-04-23T12:21:05;20.00;99.90
44229;DHT22;29904;51.058;5.378;2023-04-23T12:23:31;19.90;99.90
44229;DHT22;29904;51.058;5.378;2023-04-23T12:25:58;19.70;99.90
44229;DHT22;29904;51.058;5.378;2023-04-23T12:28:24;19.60;99.90
44229;DHT22;29904;51.058;5.378;2023-04-23T12:30:50;19.40;99.90
44229;DHT22;29904;51.058;5.378;2023-04-23T12:33:16;19.40;99.90
44229;DHT22;29904;51.058;5.378;2023-04-23T12:35:44;19.50;99.90
44229;DHT22;29904;51.058;5.378;2023-04-23T12:40:56;19.70;99.90
44229;DHT22;29904;51.058;5.378;2023-04-23T12:43:24;19.80;99.90
44229;DHT22;29904;51.058;5.378;2023-04-23T12:45:50;19.80;99.90
44229;DHT22;29904;51.058;5.378;2023-04-23T12:48:16;19.80;99.90
44229;DHT22;29904;51.058;5.378;2023-04-23T12:50:44;19.70;99.90
44229;DHT22;29904;51.058;5.378;2023-04-23T12:53:12;19.80;99.90
44229;DHT22;29904;51.058;5.378;2023-04-23T12:55:39;19.80;99.90
44229;DHT22;29904;51.058;5.378;2023-04-23T12:58:10;19.70;99.90
44229;DHT22;29904;51.058;5.378;2023-04-23T13:00:36;19.40;99.90
44229;DHT22;29904;51.058;5.378;2023-04-23T13:03:01;19.30;99.90
44229;DHT22;29904;51.058;5.378;2023-04-23T13:05:27;18.90;99.90
44229;DHT22;29904;51.058;5.378;2023-04-23T13:07:53;18.60;99.90
44229;DHT22;29904;51.058;5.378;2023-04-23T13:10:19;18.30;99.90
44229;DHT22;29904;51.058;5.378;2023-04-23T13:12:45;18.10;99.90
44229;DHT22;29904;51.058;5.378;2023-04-23T13:15:11;18.00;99.90
44229;DHT22;29904;51.058;5.378;2023-04-23T13:17:39;17.80;99.90
44229;DHT22;29904;51.058;5.378;2023-04-23T13:20:06;17.60;99.90
44229;DHT22;29904;51.058;5.378;2023-04-23T13:22:33;17.50;99.90
44229;DHT22;29904;51.058;5.378;2023-04-23T13:24:59;17.30;99.90
44229;DHT22;29904;51.058;5.378;2023-04-23T13:27:25;17.20;99.90
44229;DHT22;29904;51.058;5.378;2023-04-23T13:29:51;17.10;99.90
44229;DHT22;29904;51.058;5.378;2023-04-23T13:32:17;17.00;99.90
44229;DHT22;29904;51.058;5.378;2023-04-23T13:34:43;16.90;99.90
44229;DHT22;29904;51.058;5.378;2023-04-23T13:37:09;16.90;99.90
44229;DHT22;29904;51.058;5.378;2023-04-23T13:39:36;16.80;99.90
44229;DHT22;29904;51.058;5.378;2023-04-23T13:42:01;16.90;99.90
44229;DHT22;29904;51.058;5.378;2023-04-23T13:44:32;16.80;99.90
44229;DHT22;29904;51.058;5.378;2023-04-23T13:46:58;16.60;99.90
44229;DHT22;29904;51.058;5.378;2023-04-23T13:49:24;16.30;99.90
44229;DHT22;29904;51.058;5.378;2023-04-23T13:51:50;16.10;99.90
44229;DHT22;29904;51.058;5.378;2023-04-23T13:54:19;16.00;99.90
44229;DHT22;29904;51.058;5.378;2023-04-23T13:56:45;15.90;99.90
44229;DHT22;29904;51.058;5.378;2023-04-23T13:59:11;15.90;99.90
44229;DHT22;29904;51.058;5.378;2023-04-23T14:01:37;15.90;99.90
44229;DHT22;29904;51.058;5.378;2023-04-23T14:04:03;16.00;99.90
44229;DHT22;29904;51.058;5.378;2023-04-23T14:06:29;16.00;99.90
44229;DHT22;29904;51.058;5.378;2023-04-23T14:08:55;16.00;99.90
44229;DHT22;29904;51.058;5.378;2023-04-23T14:11:20;16.10;99.90
44229;DHT22;29904;51.058;5.378;2023-04-23T14:13:47;16.00;99.90
44229;DHT22;29904;51.058;5.378;2023-04-23T14:16:13;16.00;99.90
44229;DHT22;29904;51.058;5.378;2023-04-23T14:18:39;16.10;99.90
44229;DHT22;29904;51.058;5.378;2023-04-23T14:21:06;15.90;99.90
44229;DHT22;29904;51.058;5.378;2023-04-23T14:23:48;15.90;99.90
44229;DHT22;29904;51.058;5.378;2023-04-23T14:31:48;15.40;99.90
44229;DHT22;29904;51.058;5.378;2023-04-23T14:34:14;15.20;99.90
44229;DHT22;29904;51.058;5.378;2023-04-23T14:36:40;15.10;99.90
44229;DHT22;29904;51.058;5.378;2023-04-23T14:39:06;15.00;99.90
44229;DHT22;29904;51.058;5.378;2023-04-23T14:41:32;14.90;99.90
44229;DHT22;29904;51.058;5.378;2023-04-23T14:43:59;14.80;99.90
44229;DHT22;29904;51.058;5.378;2023-04-23T14:46:25;14.70;99.90
44229;DHT22;29904;51.058;5.378;2023-04-23T14:48:51;14.70;99.90
44229;DHT22;29904;51.058;5.378;2023-04-23T14:51:17;14.70;99.90
44229;DHT22;29904;51.058;5.378;2023-04-23T14:53:43;14.60;99.90
44229;DHT22;29904;51.058;5.378;2023-04-23T14:56:08;14.50;99.90
44229;DHT22;29904;51.058;5.378;2023-04-23T14:58:34;14.50;99.90
44229;DHT22;29904;51.058;5.378;2023-04-23T15:01:00;14.50;99.90
44229;DHT22;29904;51.058;5.378;2023-04-23T15:03:26;14.50;99.90
44229;DHT22;29904;51.058;5.378;2023-04-23T15:05:52;14.50;99.90
44229;DHT22;29904;51.058;5.378;2023-04-23T15:08:18;14.50;99.90
44229;DHT22;29904;51.058;5.378;2023-04-23T15:10:44;14.50;99.90
44229;DHT22;29904;51.058;5.378;2023-04-23T15:16:01;14.50;99.90
44229;DHT22;29904;51.058;5.378;2023-04-23T15:18:27;14.60;99.90
44229;DHT22;29904;51.058;5.378;2023-04-23T15:20:53;14.50;99.90
44229;DHT22;29904;51.058;5.378;2023-04-23T15:23:19;14.50;99.90
44229;DHT22;29904;51.058;5.378;2023-04-23T15:25:48;14.30;99.90
44229;DHT22;29904;51.058;5.378;2023-04-23T15:28:14;14.30;99.90
44229;DHT22;29904;51.058;5.378;2023-04-23T15:30:41;14.20;99.90
44229;DHT22;29904;51.058;5.378;2023-04-23T15:33:09;14.10;99.90
44229;DHT22;29904;51.058;5.378;2023-04-23T15:35:35;14.20;99.90
44229;DHT22;29904;51.058;5.378;2023-04-23T15:38:01;14.20;99.90
44229;DHT22;29904;51.058;5.378;2023-04-23T15:40:27;14.30;99.90
44229;DHT22;29904;51.058;5.378;2023-04-23T15:42:54;14.50;99.90
44229;DHT22;29904;51.058;5.378;2023-04-23T15:45:20;14.70;99.90
44229;DHT22;29904;51.058;5.378;2023-04-23T15:47:46;14.90;99.90
44229;DHT22;29904;51.058;5.378;2023-04-23T15:50:11;14.90;99.90